Terminal Aerodrome Forecast
Issued by NWS Charleston, WV

Home | Current Version | Previous Version | Text Only | Print | Product List | Glossary On
Versions: 1 2 3 4 5 6 7 8 9 10 11 12 13 14 15 16 17 18 19 20 21 22 23 24 25 26 27 28 29 30 31 32
807
FTUS41 KRLX 291604 AAB
TAFPKB
TAF AMD
KPKB 291604Z 2916/3012 00000KT P6SM SCT005 BKN012
      TEMPO 2916/2917 BKN006
     FM291700 VRB03KT P6SM BKN020
     FM291830 VRB03KT P6SM BKN035
     FM292000 VRB03KT P6SM VCTS BKN050CB
     FM300000 00000KT P6SM BKN060
     FM300500 00000KT 4SM BR BKN050
     FM301100 00000KT 1SM BR BKN001=

USA.gov is the U.S. government's official web portal to all federal, state and local government web resources and services.